Log in Register

Login to your account

Username *
Password *
Remember Me

Create an account

Fields marked with an asterisk (*) are required.
Name *
Username *
Password *
Verify password *
Email *
Verify email *

Nous contacter

 Téléphone : +33 (0)4 79 54 41 81

Coordonnées détaillées et accès : cliquez ici

 
LFLB °C
    Ferienhaus Ostsee
[source: ADDS]
METAR
LFLB 260730Z AUTO 00000KT CAVOK 02/02 Q1032 NOSIG =
TAF LFLB 260200Z 2603/2703 VRB03KT CAVOK PROB40 TEMPO 2603/2607 3000 MIFG BECMG 2616/2619 BKN050 PROB40 TEMPO 2623/2703 4000 SHRA SCT030TCU
TAF
TAF LFLB 260200Z 2603/2703 VRB03KT CAVOK PROB40 TEMPO 2603/2607 3000 MIFG BECMG 2616/2619 BKN050 PROB40 TEMPO 2623/2703 4000 SHRA SCT030TCU =
SR / SS: 06:19 / 17:18 UTC (Lever/Coucher du soleil le 2021-02-26)
JSN Boot template designed by JoomlaShine.com